sensor_id;sensor_type;location;lat;lon;timestamp;P1;durP1;ratioP1;P2;durP2;ratioP2
55069;SDS011;40967;52.070;8.596;2023-07-24T00:02:22;3.10;;;1.80;;
55069;SDS011;40967;52.070;8.596;2023-07-24T00:04:48;3.07;;;2.00;;
55069;SDS011;40967;52.070;8.596;2023-07-24T00:07:13;3.47;;;2.20;;
55069;SDS011;40967;52.070;8.596;2023-07-24T00:09:38;3.80;;;2.40;;
55069;SDS011;40967;52.070;8.596;2023-07-24T00:12:04;3.00;;;1.90;;
55069;SDS011;40967;52.070;8.596;2023-07-24T00:14:29;3.97;;;2.40;;
55069;SDS011;40967;52.070;8.596;2023-07-24T00:16:55;3.70;;;2.00;;
55069;SDS011;40967;52.070;8.596;2023-07-24T00:19:20;3.37;;;2.00;;
55069;SDS011;40967;52.070;8.596;2023-07-24T00:21:45;2.90;;;1.80;;
55069;SDS011;40967;52.070;8.596;2023-07-24T00:24:11;2.47;;;1.63;;
55069;SDS011;40967;52.070;8.596;2023-07-24T00:26:36;3.20;;;1.80;;
55069;SDS011;40967;52.070;8.596;2023-07-24T00:29:01;2.67;;;1.63;;
55069;SDS011;40967;52.070;8.596;2023-07-24T00:31:27;3.23;;;1.97;;
55069;SDS011;40967;52.070;8.596;2023-07-24T00:33:52;2.53;;;1.50;;
55069;SDS011;40967;52.070;8.596;2023-07-24T00:36:17;2.33;;;1.40;;
55069;SDS011;40967;52.070;8.596;2023-07-24T00:38:42;3.50;;;1.90;;
55069;SDS011;40967;52.070;8.596;2023-07-24T00:41:08;3.13;;;1.90;;
55069;SDS011;40967;52.070;8.596;2023-07-24T00:43:33;2.50;;;1.60;;
55069;SDS011;40967;52.070;8.596;2023-07-24T00:45:58;2.90;;;1.70;;
55069;SDS011;40967;52.070;8.596;2023-07-24T00:48:24;2.20;;;1.40;;
55069;SDS011;40967;52.070;8.596;2023-07-24T00:50:49;2.83;;;1.83;;
55069;SDS011;40967;52.070;8.596;2023-07-24T00:53:15;2.10;;;1.20;;
55069;SDS011;40967;52.070;8.596;2023-07-24T00:55:42;2.42;;;1.38;;
55069;SDS011;40967;52.070;8.596;2023-07-24T00:58:10;3.05;;;1.60;;
55069;SDS011;40967;52.070;8.596;2023-07-24T01:00:39;2.60;;;1.40;;
55069;SDS011;40967;52.070;8.596;2023-07-24T01:03:05;2.00;;;1.30;;
55069;SDS011;40967;52.070;8.596;2023-07-24T01:05:31;2.80;;;1.50;;
55069;SDS011;40967;52.070;8.596;2023-07-24T01:07:57;1.87;;;1.10;;
55069;SDS011;40967;52.070;8.596;2023-07-24T01:10:22;2.50;;;1.50;;
55069;SDS011;40967;52.070;8.596;2023-07-24T01:15:38;2.47;;;1.40;;
55069;SDS011;40967;52.070;8.596;2023-07-24T01:18:09;2.45;;;1.40;;
55069;SDS011;40967;52.070;8.596;2023-07-24T01:20:36;2.40;;;1.30;;
55069;SDS011;40967;52.070;8.596;2023-07-24T01:25:31;1.77;;;1.07;;
55069;SDS011;40967;52.070;8.596;2023-07-24T01:28:05;1.83;;;1.10;;
55069;SDS011;40967;52.070;8.596;2023-07-24T01:30:34;1.90;;;1.03;;
55069;SDS011;40967;52.070;8.596;2023-07-24T01:32:59;2.15;;;1.15;;
55069;SDS011;40967;52.070;8.596;2023-07-24T01:35:25;1.83;;;1.00;;
55069;SDS011;40967;52.070;8.596;2023-07-24T01:37:52;2.20;;;1.10;;
55069;SDS011;40967;52.070;8.596;2023-07-24T01:40:21;1.60;;;0.90;;
55069;SDS011;40967;52.070;8.596;2023-07-24T01:42:47;1.77;;;1.00;;
55069;SDS011;40967;52.070;8.596;2023-07-24T01:45:13;1.60;;;1.00;;
55069;SDS011;40967;52.070;8.596;2023-07-24T01:47:38;1.40;;;0.83;;
55069;SDS011;40967;52.070;8.596;2023-07-24T01:50:04;1.67;;;0.93;;
55069;SDS011;40967;52.070;8.596;2023-07-24T01:52:30;1.35;;;0.90;;
55069;SDS011;40967;52.070;8.596;2023-07-24T01:54:55;1.83;;;1.10;;
55069;SDS011;40967;52.070;8.596;2023-07-24T01:57:20;1.90;;;1.10;;
55069;SDS011;40967;52.070;8.596;2023-07-24T01:59:46;2.07;;;1.03;;
55069;SDS011;40967;52.070;8.596;2023-07-24T02:02:11;1.70;;;1.00;;
55069;SDS011;40967;52.070;8.596;2023-07-24T02:04:36;2.03;;;1.07;;
55069;SDS011;40967;52.070;8.596;2023-07-24T02:07:02;1.70;;;1.13;;
55069;SDS011;40967;52.070;8.596;2023-07-24T02:09:27;1.30;;;0.90;;
55069;SDS011;40967;52.070;8.596;2023-07-24T02:11:52;1.50;;;0.90;;
55069;SDS011;40967;52.070;8.596;2023-07-24T02:14:18;1.60;;;1.00;;
55069;SDS011;40967;52.070;8.596;2023-07-24T02:16:43;1.60;;;0.90;;
55069;SDS011;40967;52.070;8.596;2023-07-24T02:19:09;1.47;;;1.00;;
55069;SDS011;40967;52.070;8.596;2023-07-24T02:21:34;1.63;;;1.00;;
55069;SDS011;40967;52.070;8.596;2023-07-24T02:23:59;1.30;;;0.90;;
55069;SDS011;40967;52.070;8.596;2023-07-24T02:26:25;2.00;;;0.97;;
55069;SDS011;40967;52.070;8.596;2023-07-24T02:28:50;1.90;;;1.00;;
55069;SDS011;40967;52.070;8.596;2023-07-24T02:31:16;1.70;;;1.10;;
55069;SDS011;40967;52.070;8.596;2023-07-24T02:33:41;2.20;;;1.27;;
55069;SDS011;40967;52.070;8.596;2023-07-24T02:36:07;1.48;;;0.98;;
55069;SDS011;40967;52.070;8.596;2023-07-24T02:38:32;2.00;;;1.20;;
55069;SDS011;40967;52.070;8.596;2023-07-24T02:40:57;1.60;;;0.83;;
55069;SDS011;40967;52.070;8.596;2023-07-24T02:43:22;2.27;;;1.20;;
55069;SDS011;40967;52.070;8.596;2023-07-24T02:45:48;2.50;;;1.20;;
55069;SDS011;40967;52.070;8.596;2023-07-24T02:48:13;1.55;;;0.90;;
55069;SDS011;40967;52.070;8.596;2023-07-24T02:50:38;1.80;;;1.03;;
55069;SDS011;40967;52.070;8.596;2023-07-24T02:53:04;2.13;;;1.27;;
55069;SDS011;40967;52.070;8.596;2023-07-24T02:55:29;1.67;;;0.98;;
55069;SDS011;40967;52.070;8.596;2023-07-24T02:57:55;1.90;;;1.10;;
55069;SDS011;40967;52.070;8.596;2023-07-24T03:00:20;1.93;;;1.10;;
55069;SDS011;40967;52.070;8.596;2023-07-24T03:02:45;1.10;;;0.80;;
55069;SDS011;40967;52.070;8.596;2023-07-24T03:05:11;1.93;;;1.10;;
55069;SDS011;40967;52.070;8.596;2023-07-24T03:07:36;3.00;;;1.30;;
55069;SDS011;40967;52.070;8.596;2023-07-24T03:10:02;2.50;;;1.50;;
55069;SDS011;40967;52.070;8.596;2023-07-24T03:12:28;2.42;;;1.38;;
55069;SDS011;40967;52.070;8.596;2023-07-24T03:14:53;1.97;;;1.20;;
55069;SDS011;40967;52.070;8.596;2023-07-24T03:17:19;1.90;;;1.23;;
55069;SDS011;40967;52.070;8.596;2023-07-24T03:19:44;1.67;;;1.03;;
55069;SDS011;40967;52.070;8.596;2023-07-24T03:22:09;1.70;;;1.00;;
55069;SDS011;40967;52.070;8.596;2023-07-24T03:24:35;2.00;;;1.10;;
55069;SDS011;40967;52.070;8.596;2023-07-24T03:27:00;2.07;;;1.10;;
55069;SDS011;40967;52.070;8.596;2023-07-24T03:29:26;2.40;;;1.20;;
55069;SDS011;40967;52.070;8.596;2023-07-24T03:31:52;1.58;;;0.98;;
55069;SDS011;40967;52.070;8.596;2023-07-24T03:34:17;1.70;;;0.90;;
55069;SDS011;40967;52.070;8.596;2023-07-24T03:36:43;2.25;;;1.20;;
55069;SDS011;40967;52.070;8.596;2023-07-24T03:39:11;1.65;;;1.02;;
55069;SDS011;40967;52.070;8.596;2023-07-24T03:41:37;1.80;;;1.00;;
55069;SDS011;40967;52.070;8.596;2023-07-24T03:44:06;1.52;;;0.90;;
55069;SDS011;40967;52.070;8.596;2023-07-24T03:46:32;1.17;;;0.80;;
55069;SDS011;40967;52.070;8.596;2023-07-24T03:48:58;1.38;;;0.90;;
55069;SDS011;40967;52.070;8.596;2023-07-24T03:51:23;1.27;;;0.82;;
55069;SDS011;40967;52.070;8.596;2023-07-24T03:53:48;1.50;;;0.80;;
55069;SDS011;40967;52.070;8.596;2023-07-24T03:56:14;1.60;;;0.90;;
55069;SDS011;40967;52.070;8.596;2023-07-24T03:58:39;1.47;;;0.90;;
55069;SDS011;40967;52.070;8.596;2023-07-24T04:01:04;1.10;;;0.80;;
55069;SDS011;40967;52.070;8.596;2023-07-24T04:03:30;1.00;;;0.70;;
55069;SDS011;40967;52.070;8.596;2023-07-24T04:05:55;1.40;;;0.80;;
55069;SDS011;40967;52.070;8.596;2023-07-24T04:08:21;1.20;;;0.73;;
55069;SDS011;40967;52.070;8.596;2023-07-24T04:10:46;0.97;;;0.70;;
55069;SDS011;40967;52.070;8.596;2023-07-24T04:13:11;1.10;;;0.80;;
55069;SDS011;40967;52.070;8.596;2023-07-24T04:15:36;0.90;;;0.63;;
55069;SDS011;40967;52.070;8.596;2023-07-24T04:18:03;1.27;;;0.70;;
55069;SDS011;40967;52.070;8.596;2023-07-24T04:20:28;1.15;;;0.70;;
55069;SDS011;40967;52.070;8.596;2023-07-24T04:22:53;1.00;;;0.60;;
55069;SDS011;40967;52.070;8.596;2023-07-24T04:25:19;1.00;;;0.70;;
55069;SDS011;40967;52.070;8.596;2023-07-24T04:27:44;0.90;;;0.60;;
55069;SDS011;40967;52.070;8.596;2023-07-24T04:30:09;0.90;;;0.63;;
55069;SDS011;40967;52.070;8.596;2023-07-24T04:32:47;1.20;;;0.70;;
55069;SDS011;40967;52.070;8.596;2023-07-24T04:35:33;1.35;;;0.70;;
55069;SDS011;40967;52.070;8.596;2023-07-24T04:37:58;0.97;;;0.60;;
55069;SDS011;40967;52.070;8.596;2023-07-24T04:40:24;1.40;;;0.77;;
55069;SDS011;40967;52.070;8.596;2023-07-24T04:42:49;1.20;;;0.67;;
55069;SDS011;40967;52.070;8.596;2023-07-24T04:45:14;1.30;;;0.80;;
55069;SDS011;40967;52.070;8.596;2023-07-24T04:47:40;0.77;;;0.60;;
55069;SDS011;40967;52.070;8.596;2023-07-24T04:50:05;0.73;;;0.53;;
55069;SDS011;40967;52.070;8.596;2023-07-24T04:52:31;1.00;;;0.70;;
55069;SDS011;40967;52.070;8.596;2023-07-24T04:54:56;1.10;;;0.70;;
55069;SDS011;40967;52.070;8.596;2023-07-24T04:57:21;1.30;;;0.70;;
55069;SDS011;40967;52.070;8.596;2023-07-24T04:59:47;0.90;;;0.63;;
55069;SDS011;40967;52.070;8.596;2023-07-24T05:02:12;1.10;;;0.70;;
55069;SDS011;40967;52.070;8.596;2023-07-24T05:04:37;1.30;;;0.73;;
55069;SDS011;40967;52.070;8.596;2023-07-24T05:07:03;1.17;;;0.70;;
55069;SDS011;40967;52.070;8.596;2023-07-24T05:09:28;1.07;;;0.63;;
55069;SDS011;40967;52.070;8.596;2023-07-24T05:11:54;2.72;;;1.20;;
55069;SDS011;40967;52.070;8.596;2023-07-24T05:14:19;2.00;;;1.07;;
55069;SDS011;40967;52.070;8.596;2023-07-24T05:16:44;1.33;;;0.83;;
55069;SDS011;40967;52.070;8.596;2023-07-24T05:19:10;1.87;;;1.10;;
55069;SDS011;40967;52.070;8.596;2023-07-24T05:21:35;1.60;;;0.90;;
55069;SDS011;40967;52.070;8.596;2023-07-24T05:24:00;2.03;;;0.97;;
55069;SDS011;40967;52.070;8.596;2023-07-24T05:26:26;1.47;;;0.73;;
55069;SDS011;40967;52.070;8.596;2023-07-24T05:28:51;2.00;;;1.00;;
55069;SDS011;40967;52.070;8.596;2023-07-24T05:34:27;3.20;;;1.50;;
55069;SDS011;40967;52.070;8.596;2023-07-24T05:36:55;2.13;;;1.20;;
55069;SDS011;40967;52.070;8.596;2023-07-24T05:39:21;2.25;;;1.30;;
55069;SDS011;40967;52.070;8.596;2023-07-24T05:41:47;2.10;;;1.20;;
55069;SDS011;40967;52.070;8.596;2023-07-24T05:44:13;1.77;;;1.10;;
55069;SDS011;40967;52.070;8.596;2023-07-24T05:46:38;1.13;;;0.80;;
55069;SDS011;40967;52.070;8.596;2023-07-24T05:49:04;2.13;;;1.17;;
55069;SDS011;40967;52.070;8.596;2023-07-24T05:51:29;1.70;;;0.97;;
55069;SDS011;40967;52.070;8.596;2023-07-24T05:53:55;2.93;;;1.53;;
55069;SDS011;40967;52.070;8.596;2023-07-24T05:56:20;2.60;;;1.40;;
55069;SDS011;40967;52.070;8.596;2023-07-24T05:58:45;4.33;;;2.03;;
55069;SDS011;40967;52.070;8.596;2023-07-24T06:01:11;2.70;;;1.47;;
55069;SDS011;40967;52.070;8.596;2023-07-24T06:03:36;2.57;;;1.40;;
55069;SDS011;40967;52.070;8.596;2023-07-24T06:06:04;2.47;;;1.40;;
55069;SDS011;40967;52.070;8.596;2023-07-24T06:08:29;1.67;;;1.10;;
55069;SDS011;40967;52.070;8.596;2023-07-24T06:10:55;1.77;;;1.00;;
55069;SDS011;40967;52.070;8.596;2023-07-24T06:13:20;1.83;;;1.00;;
55069;SDS011;40967;52.070;8.596;2023-07-24T06:15:49;1.90;;;1.03;;
55069;SDS011;40967;52.070;8.596;2023-07-24T06:18:15;2.42;;;1.40;;
55069;SDS011;40967;52.070;8.596;2023-07-24T06:20:41;2.17;;;1.20;;
55069;SDS011;40967;52.070;8.596;2023-07-24T06:23:06;1.90;;;1.13;;
55069;SDS011;40967;52.070;8.596;2023-07-24T06:25:32;2.05;;;1.15;;
55069;SDS011;40967;52.070;8.596;2023-07-24T06:27:58;1.92;;;1.23;;
55069;SDS011;40967;52.070;8.596;2023-07-24T06:30:23;1.63;;;0.93;;
55069;SDS011;40967;52.070;8.596;2023-07-24T06:32:49;2.53;;;1.30;;
55069;SDS011;40967;52.070;8.596;2023-07-24T06:35:14;2.17;;;1.20;;
55069;SDS011;40967;52.070;8.596;2023-07-24T06:37:40;2.25;;;1.27;;
55069;SDS011;40967;52.070;8.596;2023-07-24T06:40:06;1.92;;;1.10;;
55069;SDS011;40967;52.070;8.596;2023-07-24T06:42:32;2.88;;;1.50;;
55069;SDS011;40967;52.070;8.596;2023-07-24T06:44:57;2.30;;;1.33;;
55069;SDS011;40967;52.070;8.596;2023-07-24T06:47:24;2.10;;;1.20;;
55069;SDS011;40967;52.070;8.596;2023-07-24T06:49:49;2.08;;;1.27;;
55069;SDS011;40967;52.070;8.596;2023-07-24T06:52:15;3.15;;;1.60;;
55069;SDS011;40967;52.070;8.596;2023-07-24T06:54:40;2.88;;;1.58;;
55069;SDS011;40967;52.070;8.596;2023-07-24T06:57:06;3.05;;;1.70;;
55069;SDS011;40967;52.070;8.596;2023-07-24T06:59:31;4.15;;;2.13;;
55069;SDS011;40967;52.070;8.596;2023-07-24T07:01:56;5.30;;;2.20;;
55069;SDS011;40967;52.070;8.596;2023-07-24T07:04:22;3.83;;;2.10;;
55069;SDS011;40967;52.070;8.596;2023-07-24T07:06:47;4.38;;;2.50;;
55069;SDS011;40967;52.070;8.596;2023-07-24T07:09:12;3.85;;;2.15;;
55069;SDS011;40967;52.070;8.596;2023-07-24T07:11:38;4.60;;;2.63;;
55069;SDS011;40967;52.070;8.596;2023-07-24T07:14:04;5.00;;;3.40;;
55069;SDS011;40967;52.070;8.596;2023-07-24T07:16:29;4.63;;;3.00;;
55069;SDS011;40967;52.070;8.596;2023-07-24T07:18:55;4.83;;;3.10;;
55069;SDS011;40967;52.070;8.596;2023-07-24T07:21:20;5.93;;;3.80;;
55069;SDS011;40967;52.070;8.596;2023-07-24T07:23:45;6.00;;;4.00;;
55069;SDS011;40967;52.070;8.596;2023-07-24T07:26:11;6.40;;;4.27;;
55069;SDS011;40967;52.070;8.596;2023-07-24T07:28:36;5.13;;;3.80;;
55069;SDS011;40967;52.070;8.596;2023-07-24T07:31:02;6.40;;;3.90;;
55069;SDS011;40967;52.070;8.596;2023-07-24T07:33:27;6.67;;;4.00;;
55069;SDS011;40967;52.070;8.596;2023-07-24T07:35:54;5.47;;;3.78;;
55069;SDS011;40967;52.070;8.596;2023-07-24T07:38:19;6.67;;;4.30;;
55069;SDS011;40967;52.070;8.596;2023-07-24T07:40:47;5.10;;;3.63;;
55069;SDS011;40967;52.070;8.596;2023-07-24T07:43:12;4.90;;;3.33;;
55069;SDS011;40967;52.070;8.596;2023-07-24T07:45:38;4.38;;;3.00;;
55069;SDS011;40967;52.070;8.596;2023-07-24T07:48:03;5.20;;;3.35;;
55069;SDS011;40967;52.070;8.596;2023-07-24T07:50:29;5.40;;;3.45;;
55069;SDS011;40967;52.070;8.596;2023-07-24T07:52:54;4.70;;;3.10;;
55069;SDS011;40967;52.070;8.596;2023-07-24T07:55:20;4.83;;;3.30;;
55069;SDS011;40967;52.070;8.596;2023-07-24T07:57:45;6.90;;;3.25;;
55069;SDS011;40967;52.070;8.596;2023-07-24T08:00:11;5.07;;;3.10;;
55069;SDS011;40967;52.070;8.596;2023-07-24T08:02:36;5.43;;;3.47;;
55069;SDS011;40967;52.070;8.596;2023-07-24T08:05:06;4.55;;;2.85;;
55069;SDS011;40967;52.070;8.596;2023-07-24T08:07:35;5.20;;;3.10;;
55069;SDS011;40967;52.070;8.596;2023-07-24T08:10:00;3.70;;;2.50;;
55069;SDS011;40967;52.070;8.596;2023-07-24T08:12:26;4.43;;;2.73;;
55069;SDS011;40967;52.070;8.596;2023-07-24T08:14:51;4.90;;;2.83;;
55069;SDS011;40967;52.070;8.596;2023-07-24T08:17:17;4.63;;;2.70;;
55069;SDS011;40967;52.070;8.596;2023-07-24T08:19:42;5.10;;;3.07;;
55069;SDS011;40967;52.070;8.596;2023-07-24T08:22:07;5.00;;;3.30;;
55069;SDS011;40967;52.070;8.596;2023-07-24T08:24:33;3.73;;;2.47;;
55069;SDS011;40967;52.070;8.596;2023-07-24T08:27:00;5.50;;;2.87;;
55069;SDS011;40967;52.070;8.596;2023-07-24T08:29:25;4.10;;;2.50;;
55069;SDS011;40967;52.070;8.596;2023-07-24T08:31:50;3.67;;;2.40;;
55069;SDS011;40967;52.070;8.596;2023-07-24T08:34:15;3.83;;;2.50;;
55069;SDS011;40967;52.070;8.596;2023-07-24T08:36:41;4.27;;;2.60;;
55069;SDS011;40967;52.070;8.596;2023-07-24T08:39:06;4.00;;;2.50;;
55069;SDS011;40967;52.070;8.596;2023-07-24T08:41:31;3.83;;;2.38;;
55069;SDS011;40967;52.070;8.596;2023-07-24T08:43:59;3.85;;;2.50;;
55069;SDS011;40967;52.070;8.596;2023-07-24T08:46:25;4.97;;;2.83;;
55069;SDS011;40967;52.070;8.596;2023-07-24T08:48:51;3.60;;;2.45;;
55069;SDS011;40967;52.070;8.596;2023-07-24T08:51:17;3.97;;;2.42;;
55069;SDS011;40967;52.070;8.596;2023-07-24T08:53:45;4.30;;;2.85;;
55069;SDS011;40967;52.070;8.596;2023-07-24T08:56:15;4.27;;;2.80;;
55069;SDS011;40967;52.070;8.596;2023-07-24T08:58:40;5.10;;;2.90;;
55069;SDS011;40967;52.070;8.596;2023-07-24T09:01:07;4.70;;;2.90;;
55069;SDS011;40967;52.070;8.596;2023-07-24T09:03:33;4.45;;;2.53;;
55069;SDS011;40967;52.070;8.596;2023-07-24T09:05:59;4.32;;;2.60;;
55069;SDS011;40967;52.070;8.596;2023-07-24T09:08:40;3.83;;;2.25;;
55069;SDS011;40967;52.070;8.596;2023-07-24T09:11:07;3.80;;;2.40;;
55069;SDS011;40967;52.070;8.596;2023-07-24T09:13:38;3.83;;;2.17;;
55069;SDS011;40967;52.070;8.596;2023-07-24T09:16:06;3.45;;;2.20;;
55069;SDS011;40967;52.070;8.596;2023-07-24T09:18:39;3.95;;;2.15;;
55069;SDS011;40967;52.070;8.596;2023-07-24T09:21:08;3.78;;;2.50;;
55069;SDS011;40967;52.070;8.596;2023-07-24T09:23:34;4.20;;;2.50;;
55069;SDS011;40967;52.070;8.596;2023-07-24T09:26:04;4.73;;;2.80;;
55069;SDS011;40967;52.070;8.596;2023-07-24T09:28:30;4.03;;;2.78;;
55069;SDS011;40967;52.070;8.596;2023-07-24T09:30:56;3.67;;;2.40;;
55069;SDS011;40967;52.070;8.596;2023-07-24T09:36:01;3.50;;;2.20;;
55069;SDS011;40967;52.070;8.596;2023-07-24T09:38:28;4.75;;;3.55;;
55069;SDS011;40967;52.070;8.596;2023-07-24T09:40:53;4.20;;;3.00;;
55069;SDS011;40967;52.070;8.596;2023-07-24T09:43:27;5.82;;;3.70;;
55069;SDS011;40967;52.070;8.596;2023-07-24T09:45:54;4.22;;;2.90;;
55069;SDS011;40967;52.070;8.596;2023-07-24T09:48:20;4.32;;;2.72;;
55069;SDS011;40967;52.070;8.596;2023-07-24T09:50:47;5.22;;;3.42;;
55069;SDS011;40967;52.070;8.596;2023-07-24T09:55:58;8.45;;;4.93;;
55069;SDS011;40967;52.070;8.596;2023-07-24T09:58:25;5.70;;;3.83;;
55069;SDS011;40967;52.070;8.596;2023-07-24T10:00:54;5.07;;;3.80;;
55069;SDS011;40967;52.070;8.596;2023-07-24T10:03:21;5.68;;;4.38;;
55069;SDS011;40967;52.070;8.596;2023-07-24T10:05:47;6.65;;;4.93;;
55069;SDS011;40967;52.070;8.596;2023-07-24T10:08:17;5.65;;;4.22;;
55069;SDS011;40967;52.070;8.596;2023-07-24T10:10:43;5.95;;;4.40;;
55069;SDS011;40967;52.070;8.596;2023-07-24T10:13:12;6.03;;;3.92;;
55069;SDS011;40967;52.070;8.596;2023-07-24T10:15:43;4.97;;;3.40;;
55069;SDS011;40967;52.070;8.596;2023-07-24T10:18:10;4.38;;;3.08;;
55069;SDS011;40967;52.070;8.596;2023-07-24T10:20:36;5.47;;;3.07;;
55069;SDS011;40967;52.070;8.596;2023-07-24T10:23:06;4.80;;;2.70;;
55069;SDS011;40967;52.070;8.596;2023-07-24T10:25:34;3.75;;;2.40;;
55069;SDS011;40967;52.070;8.596;2023-07-24T10:28:08;3.72;;;2.05;;
55069;SDS011;40967;52.070;8.596;2023-07-24T10:30:39;2.65;;;1.60;;
55069;SDS011;40967;52.070;8.596;2023-07-24T10:33:18;2.77;;;1.60;;
55069;SDS011;40967;52.070;8.596;2023-07-24T10:35:46;2.83;;;1.75;;
55069;SDS011;40967;52.070;8.596;2023-07-24T10:38:16;2.53;;;1.60;;
55069;SDS011;40967;52.070;8.596;2023-07-24T10:40:42;2.83;;;1.50;;
55069;SDS011;40967;52.070;8.596;2023-07-24T10:43:13;3.38;;;1.52;;
55069;SDS011;40967;52.070;8.596;2023-07-24T10:45:45;2.00;;;1.30;;
55069;SDS011;40967;52.070;8.596;2023-07-24T10:48:13;1.70;;;1.20;;
55069;SDS011;40967;52.070;8.596;2023-07-24T10:50:40;2.53;;;1.30;;
55069;SDS011;40967;52.070;8.596;2023-07-24T10:53:08;2.10;;;1.17;;
55069;SDS011;40967;52.070;8.596;2023-07-24T10:55:34;2.00;;;1.20;;
55069;SDS011;40967;52.070;8.596;2023-07-24T10:58:00;1.80;;;1.00;;
55069;SDS011;40967;52.070;8.596;2023-07-24T11:00:25;2.93;;;1.47;;
55069;SDS011;40967;52.070;8.596;2023-07-24T11:02:52;2.80;;;1.50;;
55069;SDS011;40967;52.070;8.596;2023-07-24T11:05:19;2.13;;;1.30;;
55069;SDS011;40967;52.070;8.596;2023-07-24T11:07:46;2.45;;;1.30;;
55069;SDS011;40967;52.070;8.596;2023-07-24T11:10:21;2.33;;;1.33;;
55069;SDS011;40967;52.070;8.596;2023-07-24T11:12:47;1.98;;;1.20;;
55069;SDS011;40967;52.070;8.596;2023-07-24T11:15:13;1.63;;;1.10;;
55069;SDS011;40967;52.070;8.596;2023-07-24T11:17:39;1.50;;;1.00;;
55069;SDS011;40967;52.070;8.596;2023-07-24T11:20:07;1.85;;;0.98;;
55069;SDS011;40967;52.070;8.596;2023-07-24T11:22:32;1.40;;;0.80;;
55069;SDS011;40967;52.070;8.596;2023-07-24T11:24:58;0.90;;;0.70;;
55069;SDS011;40967;52.070;8.596;2023-07-24T11:27:24;1.17;;;0.70;;
55069;SDS011;40967;52.070;8.596;2023-07-24T11:29:50;1.03;;;0.80;;
55069;SDS011;40967;52.070;8.596;2023-07-24T11:32:22;1.10;;;0.75;;
55069;SDS011;40967;52.070;8.596;2023-07-24T11:34:50;1.10;;;0.65;;
55069;SDS011;40967;52.070;8.596;2023-07-24T11:37:17;0.70;;;0.50;;
55069;SDS011;40967;52.070;8.596;2023-07-24T11:39:54;0.70;;;0.57;;
55069;SDS011;40967;52.070;8.596;2023-07-24T11:42:20;1.20;;;0.80;;
55069;SDS011;40967;52.070;8.596;2023-07-24T11:44:46;1.02;;;0.63;;
55069;SDS011;40967;52.070;8.596;2023-07-24T11:47:11;1.15;;;0.82;;
55069;SDS011;40967;52.070;8.596;2023-07-24T11:49:36;1.20;;;0.80;;
55069;SDS011;40967;52.070;8.596;2023-07-24T11:52:05;0.87;;;0.70;;
55069;SDS011;40967;52.070;8.596;2023-07-24T11:54:34;1.63;;;1.10;;
55069;SDS011;40967;52.070;8.596;2023-07-24T11:57:00;1.38;;;0.80;;
55069;SDS011;40967;52.070;8.596;2023-07-24T11:59:26;2.50;;;1.47;;
55069;SDS011;40967;52.070;8.596;2023-07-24T12:01:52;1.87;;;1.30;;
55069;SDS011;40967;52.070;8.596;2023-07-24T12:04:18;2.15;;;1.38;;
55069;SDS011;40967;52.070;8.596;2023-07-24T12:06:44;2.13;;;1.50;;
55069;SDS011;40967;52.070;8.596;2023-07-24T12:09:10;1.85;;;1.40;;
55069;SDS011;40967;52.070;8.596;2023-07-24T12:11:42;2.90;;;1.63;;
55069;SDS011;40967;52.070;8.596;2023-07-24T12:14:09;2.92;;;1.80;;
55069;SDS011;40967;52.070;8.596;2023-07-24T12:16:35;2.80;;;2.00;;
55069;SDS011;40967;52.070;8.596;2023-07-24T12:19:01;3.40;;;2.00;;
55069;SDS011;40967;52.070;8.596;2023-07-24T12:21:26;3.67;;;2.30;;
55069;SDS011;40967;52.070;8.596;2023-07-24T12:23:51;2.63;;;1.83;;
55069;SDS011;40967;52.070;8.596;2023-07-24T12:26:17;2.97;;;2.10;;
55069;SDS011;40967;52.070;8.596;2023-07-24T12:28:42;3.10;;;2.00;;
55069;SDS011;40967;52.070;8.596;2023-07-24T12:31:07;3.97;;;2.87;;
55069;SDS011;40967;52.070;8.596;2023-07-24T12:33:33;3.03;;;2.20;;
55069;SDS011;40967;52.070;8.596;2023-07-24T12:35:58;3.50;;;2.40;;
55069;SDS011;40967;52.070;8.596;2023-07-24T12:38:24;3.30;;;2.13;;
55069;SDS011;40967;52.070;8.596;2023-07-24T12:40:50;2.88;;;2.10;;
55069;SDS011;40967;52.070;8.596;2023-07-24T12:43:15;2.65;;;1.70;;
55069;SDS011;40967;52.070;8.596;2023-07-24T12:45:40;3.40;;;2.10;;
55069;SDS011;40967;52.070;8.596;2023-07-24T12:48:06;2.83;;;1.90;;
55069;SDS011;40967;52.070;8.596;2023-07-24T12:50:31;2.60;;;1.90;;
55069;SDS011;40967;52.070;8.596;2023-07-24T12:52:56;2.20;;;1.70;;
55069;SDS011;40967;52.070;8.596;2023-07-24T12:55:22;3.57;;;1.87;;
55069;SDS011;40967;52.070;8.596;2023-07-24T12:57:47;4.87;;;2.77;;
55069;SDS011;40967;52.070;8.596;2023-07-24T13:00:13;3.97;;;2.67;;
55069;SDS011;40967;52.070;8.596;2023-07-24T13:02:38;4.32;;;2.72;;
55069;SDS011;40967;52.070;8.596;2023-07-24T13:05:04;3.42;;;2.22;;
55069;SDS011;40967;52.070;8.596;2023-07-24T13:07:30;2.47;;;1.67;;
55069;SDS011;40967;52.070;8.596;2023-07-24T13:09:58;1.63;;;1.20;;
55069;SDS011;40967;52.070;8.596;2023-07-24T13:12:24;1.67;;;1.20;;
55069;SDS011;40967;52.070;8.596;2023-07-24T13:14:49;1.60;;;1.00;;
55069;SDS011;40967;52.070;8.596;2023-07-24T13:17:14;1.40;;;0.90;;
55069;SDS011;40967;52.070;8.596;2023-07-24T13:19:41;1.10;;;0.80;;
55069;SDS011;40967;52.070;8.596;2023-07-24T13:22:06;2.00;;;1.30;;
55069;SDS011;40967;52.070;8.596;2023-07-24T13:24:32;2.50;;;1.50;;
55069;SDS011;40967;52.070;8.596;2023-07-24T13:26:57;2.17;;;1.42;;
55069;SDS011;40967;52.070;8.596;2023-07-24T13:29:22;3.17;;;2.03;;
55069;SDS011;40967;52.070;8.596;2023-07-24T13:31:49;2.63;;;1.57;;
55069;SDS011;40967;52.070;8.596;2023-07-24T13:34:15;3.25;;;1.70;;
55069;SDS011;40967;52.070;8.596;2023-07-24T13:36:44;2.40;;;1.50;;
55069;SDS011;40967;52.070;8.596;2023-07-24T13:39:09;3.00;;;1.87;;
55069;SDS011;40967;52.070;8.596;2023-07-24T13:41:35;3.53;;;2.10;;
55069;SDS011;40967;52.070;8.596;2023-07-24T13:44:03;5.72;;;2.83;;
55069;SDS011;40967;52.070;8.596;2023-07-24T13:46:28;3.70;;;2.17;;
55069;SDS011;40967;52.070;8.596;2023-07-24T13:48:54;3.83;;;2.40;;
55069;SDS011;40967;52.070;8.596;2023-07-24T13:51:19;4.80;;;2.77;;
55069;SDS011;40967;52.070;8.596;2023-07-24T13:53:44;3.50;;;2.00;;
55069;SDS011;40967;52.070;8.596;2023-07-24T13:56:13;4.38;;;2.25;;
55069;SDS011;40967;52.070;8.596;2023-07-24T13:58:39;2.78;;;1.90;;
55069;SDS011;40967;52.070;8.596;2023-07-24T14:01:04;3.47;;;1.83;;
55069;SDS011;40967;52.070;8.596;2023-07-24T14:03:32;3.42;;;2.20;;
55069;SDS011;40967;52.070;8.596;2023-07-24T14:05:58;2.60;;;1.60;;
55069;SDS011;40967;52.070;8.596;2023-07-24T14:08:23;3.53;;;1.80;;
55069;SDS011;40967;52.070;8.596;2023-07-24T14:10:49;2.65;;;1.45;;
55069;SDS011;40967;52.070;8.596;2023-07-24T14:13:14;2.50;;;1.53;;
55069;SDS011;40967;52.070;8.596;2023-07-24T14:15:40;2.43;;;1.37;;
55069;SDS011;40967;52.070;8.596;2023-07-24T14:18:05;1.87;;;1.17;;
55069;SDS011;40967;52.070;8.596;2023-07-24T14:20:30;1.33;;;0.90;;
55069;SDS011;40967;52.070;8.596;2023-07-24T14:22:56;1.20;;;0.80;;
55069;SDS011;40967;52.070;8.596;2023-07-24T14:25:21;0.83;;;0.70;;
55069;SDS011;40967;52.070;8.596;2023-07-24T14:27:46;1.57;;;1.00;;
55069;SDS011;40967;52.070;8.596;2023-07-24T14:30:12;2.60;;;1.40;;
55069;SDS011;40967;52.070;8.596;2023-07-24T14:32:37;1.88;;;1.20;;
55069;SDS011;40967;52.070;8.596;2023-07-24T14:35:03;1.60;;;1.00;;
55069;SDS011;40967;52.070;8.596;2023-07-24T14:37:31;1.63;;;1.10;;
55069;SDS011;40967;52.070;8.596;2023-07-24T14:39:56;1.33;;;1.00;;
55069;SDS011;40967;52.070;8.596;2023-07-24T14:42:22;2.47;;;1.40;;
55069;SDS011;40967;52.070;8.596;2023-07-24T14:44:47;2.40;;;1.23;;
55069;SDS011;40967;52.070;8.596;2023-07-24T14:47:12;2.43;;;1.47;;
55069;SDS011;40967;52.070;8.596;2023-07-24T14:49:38;2.53;;;1.20;;
55069;SDS011;40967;52.070;8.596;2023-07-24T14:52:04;1.67;;;1.10;;
55069;SDS011;40967;52.070;8.596;2023-07-24T14:54:29;3.60;;;1.50;;
55069;SDS011;40967;52.070;8.596;2023-07-24T14:56:55;1.97;;;1.10;;